Time;durP1;ratioP1;P1;durP2;ratioP2;P2;SDS_P1;SDS_P2;PMS_P1;PMS_P2;Temp;Humidity;BMP_temperature;BMP_pressure;BME280_temperature;BME280_humidity;BME280_pressure;Samples;Min_cycle;Max_cycle;Signal;HPM_P1;HPM_P2
2023/04/30 00:00:09;;;;;;;2.00;1.85;;;18.80;57.30;;;;;;4966904;28;20203;-69
2023/04/30 00:02:36;;;;;;;2.60;2.00;;;18.80;57.40;;;;;;4959210;28;20214;-69
2023/04/30 00:05:02;;;;;;;1.88;1.77;;;18.80;57.30;;;;;;4966708;28;20603;-69
2023/04/30 00:07:27;;;;;;;2.28;2.08;;;18.80;57.30;;;;;;4983156;28;20190;-69
2023/04/30 00:09:53;;;;;;;2.00;1.75;;;18.80;57.30;;;;;;4943609;28;20228;-68
2023/04/30 00:12:19;;;;;;;2.35;2.10;;;18.80;57.30;;;;;;4970292;28;20192;-68
2023/04/30 00:14:44;;;;;;;3.05;1.90;;;18.80;57.30;;;;;;4962495;28;20213;-68
2023/04/30 00:17:10;;;;;;;2.00;1.90;;;18.80;57.30;;;;;;4958401;28;20221;-69
2023/04/30 00:19:36;;;;;;;2.38;2.17;;;18.80;57.30;;;;;;4958967;28;20193;-68
2023/04/30 00:22:02;;;;;;;1.83;1.73;;;18.80;57.30;;;;;;4975765;28;20220;-68
2023/04/30 00:24:28;;;;;;;1.98;1.88;;;18.80;57.30;;;;;;4958613;28;20210;-68
2023/04/30 00:26:54;;;;;;;1.80;1.70;;;18.80;57.40;;;;;;4966282;28;20204;-68
2023/04/30 00:29:19;;;;;;;2.30;2.10;;;18.80;57.30;;;;;;4970276;28;20189;-68
2023/04/30 00:31:45;;;;;;;2.30;2.10;;;18.80;57.30;;;;;;4946162;28;20205;-69
2023/04/30 00:34:11;;;;;;;1.90;1.80;;;18.80;57.30;;;;;;4967312;28;20205;-68
2023/04/30 00:36:37;;;;;;;2.00;1.80;;;18.80;57.30;;;;;;4958368;28;20665;-69
2023/04/30 00:39:03;;;;;;;1.80;1.70;;;18.80;57.30;;;;;;4975551;28;20188;-68
2023/04/30 00:41:31;;;;;;;2.00;1.90;;;18.80;57.30;;;;;;4958435;28;20213;-68
2023/04/30 00:43:56;;;;;;;1.98;1.80;;;18.80;57.30;;;;;;4958001;28;20217;-68
2023/04/30 00:46:22;;;;;;;1.85;1.75;;;18.80;57.40;;;;;;4958281;28;20185;-69
2023/04/30 00:48:48;;;;;;;2.13;2.00;;;18.80;57.30;;;;;;4966460;28;20189;-68
2023/04/30 00:51:15;;;;;;;2.13;2.03;;;18.80;57.30;;;;;;4950429;28;20232;-68
2023/04/30 00:53:42;;;;;;;2.33;2.13;;;18.80;57.30;;;;;;4958062;28;20218;-68
2023/04/30 00:56:09;;;;;;;1.70;1.60;;;18.80;57.30;;;;;;4958041;28;20193;-68
2023/04/30 00:58:36;;;;;;;2.72;1.80;;;18.80;57.30;;;;;;4942463;28;20213;-68
2023/04/30 01:01:05;;;;;;;1.70;1.60;;;18.80;57.30;;;;;;4992031;28;20272;-68
2023/04/30 01:03:31;;;;;;;2.20;2.00;;;18.80;57.30;;;;;;4963885;28;20312;-68
2023/04/30 01:05:57;;;;;;;1.90;1.80;;;18.80;57.30;;;;;;4973741;28;20282;-68
2023/04/30 01:08:24;;;;;;;2.17;1.98;;;18.80;57.30;;;;;;4957837;28;20200;-68
2023/04/30 01:11:27;;;;;;;2.67;2.00;;;18.80;57.30;;;;;;4961809;28;20178;-68
2023/04/30 01:14:07;;;;;;;1.90;1.80;;;18.80;57.30;;;;;;4938989;28;20213;-68
2023/04/30 01:16:41;;;;;;;1.98;1.75;;;18.70;57.20;;;;;;4971372;28;20208;-68
2023/04/30 01:19:29;;;;;;;1.85;1.75;;;18.70;57.20;;;;;;4965615;28;20192;-68
2023/04/30 01:22:01;;;;;;;1.90;1.80;;;18.80;57.30;;;;;;4942028;28;20205;-68
2023/04/30 01:24:50;;;;;;;1.90;1.80;;;18.80;57.30;;;;;;4968963;28;20292;-68
2023/04/30 01:27:46;;;;;;;2.10;1.98;;;18.80;57.30;;;;;;5001675;28;20189;-68
2023/04/30 01:30:14;;;;;;;1.80;1.70;;;18.70;57.20;;;;;;4968800;28;20189;-68
2023/04/30 01:32:39;;;;;;;1.80;1.70;;;18.70;57.20;;;;;;4968878;28;20267;-68
2023/04/30 01:35:05;;;;;;;1.90;1.80;;;18.80;57.30;;;;;;4966475;28;20216;-68
2023/04/30 01:38:10;;;;;;;1.60;1.50;;;18.70;57.20;;;;;;4957355;28;20198;-69
2023/04/30 01:40:53;;;;;;;1.60;1.50;;;18.80;57.30;;;;;;4952015;28;20201;-69
2023/04/30 01:44:02;;;;;;;2.25;1.75;;;18.80;57.30;;;;;;4949460;28;20221;-69
2023/04/30 01:46:29;;;;;;;2.15;2.05;;;18.80;57.30;;;;;;4964957;28;20266;-68
2023/04/30 01:49:21;;;;;;;2.13;1.65;;;18.80;57.30;;;;;;4972928;28;20553;-68
2023/04/30 01:51:55;;;;;;;1.75;1.65;;;18.80;57.30;;;;;;4965393;28;20198;-68
2023/04/30 01:54:39;;;;;;;1.73;1.63;;;18.80;57.30;;;;;;4969123;28;20218;-68
2023/04/30 01:57:14;;;;;;;1.80;1.70;;;18.80;57.30;;;;;;4963150;28;20220;-68
2023/04/30 01:59:42;;;;;;;1.85;1.75;;;18.70;57.20;;;;;;4979506;28;20283;-68
2023/04/30 02:02:08;;;;;;;1.83;1.73;;;18.80;57.30;;;;;;4968158;28;20253;-68
2023/04/30 02:04:35;;;;;;;2.17;1.98;;;18.80;57.30;;;;;;4967698;28;20640;-68
2023/04/30 02:07:02;;;;;;;1.90;1.80;;;18.70;57.20;;;;;;4958726;28;20204;-68
2023/04/30 02:09:28;;;;;;;1.88;1.77;;;18.70;57.20;;;;;;4961656;28;20177;-68
2023/04/30 02:11:54;;;;;;;2.42;1.77;;;18.70;57.20;;;;;;4976005;28;20199;-68
2023/04/30 02:14:20;;;;;;;1.80;1.70;;;18.70;57.20;;;;;;4980669;28;20209;-68
2023/04/30 02:16:45;;;;;;;1.60;1.50;;;18.70;57.20;;;;;;4956621;28;20185;-68
2023/04/30 02:19:11;;;;;;;1.88;1.77;;;18.70;57.20;;;;;;4956816;28;20321;-68
2023/04/30 02:21:37;;;;;;;1.65;1.55;;;18.70;57.10;;;;;;4988836;28;20217;-68
2023/04/30 02:24:05;;;;;;;1.40;1.35;;;18.70;57.10;;;;;;4972267;28;20206;-68
2023/04/30 02:26:30;;;;;;;1.80;1.70;;;18.70;57.10;;;;;;4964522;28;20193;-68
2023/04/30 02:28:56;;;;;;;1.88;1.73;;;18.70;57.20;;;;;;4972884;28;20189;-68
2023/04/30 02:31:22;;;;;;;1.77;1.67;;;18.70;57.10;;;;;;4964278;28;20213;-68
2023/04/30 02:33:47;;;;;;;1.52;1.42;;;18.70;57.20;;;;;;4963275;28;20274;-68
2023/04/30 02:36:13;;;;;;;1.83;1.73;;;18.70;57.10;;;;;;4965310;28;20192;-69
2023/04/30 02:38:39;;;;;;;1.92;1.83;;;18.70;57.10;;;;;;4943541;28;20189;-68
2023/04/30 02:41:05;;;;;;;1.60;1.50;;;18.70;57.10;;;;;;4948684;28;20646;-68
2023/04/30 02:43:30;;;;;;;1.80;1.70;;;18.70;57.10;;;;;;4964122;28;20225;-68
2023/04/30 02:45:56;;;;;;;1.73;1.63;;;18.70;57.10;;;;;;4956131;28;20185;-68
2023/04/30 02:48:22;;;;;;;1.70;1.60;;;18.70;57.10;;;;;;4959703;28;20187;-68
2023/04/30 02:50:48;;;;;;;2.10;1.60;;;18.70;57.10;;;;;;4992848;28;20185;-68
2023/04/30 02:53:13;;;;;;;1.50;1.40;;;18.70;57.10;;;;;;4956873;28;20190;-68
2023/04/30 02:55:39;;;;;;;1.67;1.58;;;18.70;57.10;;;;;;4954515;28;20193;-68
2023/04/30 02:58:05;;;;;;;1.63;1.52;;;18.70;57.10;;;;;;4963626;28;20193;-68
2023/04/30 03:00:31;;;;;;;1.80;1.70;;;18.70;57.10;;;;;;4944881;28;20203;-68
2023/04/30 03:02:56;;;;;;;1.75;1.65;;;18.70;57.10;;;;;;4960864;28;20213;-68
2023/04/30 03:05:23;;;;;;;2.00;1.90;;;18.70;57.10;;;;;;4955575;28;20206;-68
2023/04/30 03:07:48;;;;;;;1.90;1.80;;;18.70;57.10;;;;;;4963842;28;20606;-69
2023/04/30 03:10:15;;;;;;;1.63;1.52;;;18.70;57.10;;;;;;4966319;28;20194;-68
2023/04/30 03:12:40;;;;;;;1.67;1.58;;;18.70;57.10;;;;;;4967011;28;20583;-68
2023/04/30 03:15:07;;;;;;;1.60;1.50;;;18.70;57.10;;;;;;4967114;28;20213;-68
2023/04/30 03:17:33;;;;;;;1.70;1.60;;;18.70;57.10;;;;;;4962378;28;20259;-69
2023/04/30 03:19:58;;;;;;;1.80;1.70;;;18.70;57.10;;;;;;4963947;28;20197;-69
2023/04/30 03:22:25;;;;;;;1.75;1.65;;;18.70;57.10;;;;;;4955651;28;20209;-68
2023/04/30 03:24:51;;;;;;;1.73;1.63;;;18.70;57.10;;;;;;4939711;28;20236;-68
2023/04/30 03:27:17;;;;;;;3.15;1.42;;;18.60;57.10;;;;;;4966388;28;20186;-68
2023/04/30 03:29:42;;;;;;;1.55;1.45;;;18.70;57.10;;;;;;4961222;28;20183;-68
2023/04/30 03:32:08;;;;;;;1.60;1.50;;;18.60;57.00;;;;;;4963838;28;20222;-68
2023/04/30 03:34:34;;;;;;;1.60;1.50;;;18.70;57.10;;;;;;4939624;28;20215;-68
2023/04/30 03:37:00;;;;;;;2.03;1.85;;;18.70;57.10;;;;;;4947893;28;20193;-68
2023/04/30 03:39:26;;;;;;;1.98;1.60;;;18.60;57.00;;;;;;4940519;28;20186;-68
2023/04/30 03:41:52;;;;;;;1.70;1.60;;;18.60;57.00;;;;;;4972952;28;20217;-68
2023/04/30 03:44:18;;;;;;;1.65;1.55;;;18.70;57.10;;;;;;4972640;28;20256;-68
2023/04/30 03:46:44;;;;;;;1.67;1.58;;;18.70;57.10;;;;;;4955534;28;20195;-69
2023/04/30 03:49:10;;;;;;;1.88;1.77;;;18.70;57.00;;;;;;4955777;28;20189;-68
2023/04/30 03:51:40;;;;;;;1.63;1.52;;;18.60;57.00;;;;;;4996154;28;20194;-68
2023/04/30 03:54:06;;;;;;;1.73;1.63;;;18.70;57.10;;;;;;4956023;28;20228;-68
2023/04/30 03:56:34;;;;;;;1.70;1.60;;;18.60;57.00;;;;;;4946637;28;20191;-68
2023/04/30 03:59:00;;;;;;;1.67;1.58;;;18.60;57.00;;;;;;4963510;28;20190;-68
2023/04/30 04:01:28;;;;;;;1.70;1.60;;;18.60;57.00;;;;;;4971398;28;20760;-69
2023/04/30 04:03:54;;;;;;;1.85;1.75;;;18.60;57.00;;;;;;4963269;28;20214;-68
2023/04/30 04:06:20;;;;;;;1.92;1.83;;;18.60;57.00;;;;;;4963465;28;20198;-68
2023/04/30 04:08:46;;;;;;;1.50;1.40;;;18.60;57.00;;;;;;4965707;28;20189;-68
2023/04/30 04:11:12;;;;;;;1.90;1.70;;;18.60;57.00;;;;;;4974890;28;20189;-68
2023/04/30 04:13:38;;;;;;;1.80;1.70;;;18.60;57.00;;;;;;4942870;28;20582;-68
2023/04/30 04:16:04;;;;;;;1.65;1.55;;;18.60;57.00;;;;;;4958976;28;20197;-68
2023/04/30 04:18:30;;;;;;;2.05;1.90;;;18.60;57.00;;;;;;4966323;28;20181;-68
2023/04/30 04:20:56;;;;;;;2.13;2.03;;;18.60;57.00;;;;;;4959075;28;20201;-68
2023/04/30 04:23:22;;;;;;;1.52;1.42;;;18.60;57.00;;;;;;4958852;28;20233;-68
2023/04/30 04:25:48;;;;;;;1.80;1.70;;;18.60;57.00;;;;;;4974654;28;20197;-68
2023/04/30 04:28:15;;;;;;;1.70;1.60;;;18.60;57.00;;;;;;4966941;28;20185;-68
2023/04/30 04:30:42;;;;;;;1.95;1.85;;;18.60;57.00;;;;;;4967024;28;20192;-68
2023/04/30 04:33:09;;;;;;;2.00;1.90;;;18.60;57.00;;;;;;4975711;28;20189;-68
2023/04/30 04:35:35;;;;;;;1.75;1.58;;;18.60;57.50;;;;;;4969693;28;20242;-68
2023/04/30 04:38:01;;;;;;;2.20;2.00;;;18.60;57.00;;;;;;4970084;28;20212;-68
2023/04/30 04:40:27;;;;;;;1.77;1.67;;;18.60;57.00;;;;;;4962113;28;20196;-69
2023/04/30 04:42:54;;;;;;;2.22;2.00;;;18.60;56.90;;;;;;4963024;28;20213;-68
2023/04/30 04:45:21;;;;;;;1.85;1.75;;;18.60;57.00;;;;;;4992371;28;20205;-68
2023/04/30 04:47:48;;;;;;;1.92;1.70;;;18.60;57.00;;;;;;4971338;28;20192;-69
2023/04/30 04:50:13;;;;;;;1.70;1.60;;;18.60;56.90;;;;;;4950031;28;20281;-68
2023/04/30 04:52:39;;;;;;;1.98;1.77;;;18.60;56.90;;;;;;4958253;28;20190;-68
2023/04/30 04:55:06;;;;;;;2.00;1.90;;;18.60;57.00;;;;;;4949988;28;20284;-68
2023/04/30 04:57:32;;;;;;;2.05;1.95;;;18.60;57.00;;;;;;4965744;28;20193;-68
2023/04/30 04:59:58;;;;;;;1.95;1.85;;;18.60;56.90;;;;;;4958272;28;20189;-68
2023/04/30 05:02:24;;;;;;;2.13;1.92;;;18.60;56.90;;;;;;4974187;28;20735;-68
2023/04/30 05:04:50;;;;;;;1.90;1.80;;;18.60;57.00;;;;;;4966110;28;20336;-68
2023/04/30 05:07:18;;;;;;;2.50;2.10;;;18.60;56.90;;;;;;4981917;28;20618;-69
2023/04/30 05:09:48;;;;;;;1.83;1.73;;;18.60;57.00;;;;;;4965965;28;20186;-68
2023/04/30 05:12:14;;;;;;;2.55;1.98;;;18.60;56.90;;;;;;4966900;28;20193;-68
2023/04/30 05:14:40;;;;;;;2.03;1.83;;;18.60;56.90;;;;;;4964308;28;20298;-68
2023/04/30 05:17:06;;;;;;;2.28;2.00;;;18.60;57.00;;;;;;4973957;28;20226;-68
2023/04/30 05:19:32;;;;;;;1.67;1.58;;;18.60;57.00;;;;;;4981412;28;20197;-68
2023/04/30 05:21:59;;;;;;;2.20;1.80;;;18.60;56.90;;;;;;4964988;28;20240;-68
2023/04/30 05:24:24;;;;;;;1.90;1.80;;;18.60;56.90;;;;;;4966034;28;20240;-68
2023/04/30 05:26:50;;;;;;;1.90;1.80;;;18.60;57.00;;;;;;4978840;28;20222;-68
2023/04/30 05:29:16;;;;;;;2.40;2.20;;;18.60;57.00;;;;;;4979820;28;20186;-68
2023/04/30 05:31:42;;;;;;;2.20;2.00;;;18.50;56.80;;;;;;4957461;28;20628;-68
2023/04/30 05:34:07;;;;;;;1.80;1.70;;;18.50;56.80;;;;;;4965484;28;20217;-68
2023/04/30 05:36:33;;;;;;;2.30;2.20;;;18.50;56.80;;;;;;4969127;28;20193;-68
2023/04/30 05:38:59;;;;;;;2.15;2.00;;;18.50;56.80;;;;;;4968788;28;20232;-68
2023/04/30 05:41:25;;;;;;;2.20;2.10;;;18.50;56.80;;;;;;4992987;28;20198;-69
2023/04/30 05:43:50;;;;;;;2.15;2.00;;;18.50;56.80;;;;;;4970725;28;20210;-68
2023/04/30 05:46:16;;;;;;;2.30;2.10;;;18.50;56.80;;;;;;4949374;28;20196;-68
2023/04/30 05:48:42;;;;;;;2.75;2.55;;;18.50;56.80;;;;;;4957393;28;20248;-68
2023/04/30 05:51:09;;;;;;;1.95;1.85;;;18.50;56.90;;;;;;4956926;28;20236;-68
2023/04/30 05:53:35;;;;;;;2.50;2.30;;;18.60;56.90;;;;;;4964736;28;20222;-68
2023/04/30 05:56:01;;;;;;;1.92;1.83;;;18.50;56.80;;;;;;4964884;28;20739;-69
2023/04/30 05:58:26;;;;;;;2.20;2.10;;;18.60;57.50;;;;;;4957186;28;20193;-68
2023/04/30 06:00:52;;;;;;;2.38;2.17;;;18.50;56.80;;;;;;4982683;28;20256;-69
2023/04/30 06:03:19;;;;;;;2.45;2.28;;;18.50;56.90;;;;;;4971054;28;20698;-68
2023/04/30 06:05:45;;;;;;;2.00;1.90;;;18.50;56.90;;;;;;4982380;28;20190;-69
2023/04/30 06:08:11;;;;;;;2.28;2.17;;;18.50;56.80;;;;;;4949209;28;20198;-68
2023/04/30 06:10:38;;;;;;;2.00;1.90;;;18.50;56.80;;;;;;4964297;28;20581;-68
2023/04/30 06:13:04;;;;;;;1.92;1.83;;;18.50;56.80;;;;;;4980427;28;20188;-67
2023/04/30 06:15:30;;;;;;;2.50;2.33;;;18.50;56.80;;;;;;4964816;28;20189;-68
2023/04/30 06:17:57;;;;;;;1.92;1.83;;;18.50;56.80;;;;;;4956616;28;20205;-68
2023/04/30 06:20:23;;;;;;;2.00;1.90;;;18.50;56.80;;;;;;4958438;28;20251;-68
2023/04/30 06:22:48;;;;;;;2.35;2.15;;;18.50;56.80;;;;;;4967908;28;20221;-68
2023/04/30 06:25:14;;;;;;;2.60;2.13;;;18.50;56.80;;;;;;4976174;28;20213;-68
2023/04/30 06:27:40;;;;;;;2.10;1.95;;;18.50;56.80;;;;;;4964558;28;20190;-68
2023/04/30 06:30:07;;;;;;;2.10;2.00;;;18.50;56.80;;;;;;4956470;28;20200;-68
2023/04/30 06:32:33;;;;;;;2.35;2.15;;;18.50;56.80;;;;;;4967016;28;20204;-68
2023/04/30 06:34:59;;;;;;;2.00;1.88;;;18.50;57.20;;;;;;4960976;28;20220;-68
2023/04/30 06:37:25;;;;;;;2.25;2.05;;;18.50;56.80;;;;;;4947261;28;20198;-69
2023/04/30 06:39:50;;;;;;;2.17;2.08;;;18.50;56.80;;;;;;4964344;28;20201;-68
2023/04/30 06:42:16;;;;;;;2.47;2.28;;;18.50;56.80;;;;;;4955408;28;20225;-68
2023/04/30 06:44:42;;;;;;;2.10;2.00;;;18.50;56.80;;;;;;4955870;28;20305;-68
2023/04/30 06:47:08;;;;;;;2.50;2.30;;;18.50;56.80;;;;;;4947960;28;20184;-68
2023/04/30 06:49:34;;;;;;;2.50;2.38;;;18.50;56.80;;;;;;4980666;28;20209;-68
2023/04/30 06:52:00;;;;;;;2.50;2.30;;;18.50;56.80;;;;;;4956293;28;20575;-68
2023/04/30 06:54:26;;;;;;;2.38;2.17;;;18.50;56.80;;;;;;4995946;28;20221;-68
2023/04/30 06:56:52;;;;;;;2.03;1.92;;;18.50;56.80;;;;;;4940185;28;20205;-69
2023/04/30 06:59:18;;;;;;;2.70;2.50;;;18.50;56.80;;;;;;4973341;28;20190;-68
2023/04/30 07:01:44;;;;;;;2.30;2.17;;;18.50;56.80;;;;;;4955917;28;20229;-68
2023/04/30 07:04:11;;;;;;;2.33;2.13;;;18.50;56.80;;;;;;4988284;28;20724;-68
2023/04/30 07:06:36;;;;;;;2.55;2.05;;;18.50;56.80;;;;;;4980410;28;20188;-68
2023/04/30 07:09:02;;;;;;;1.98;1.88;;;18.50;56.80;;;;;;4956152;28;20198;-68
2023/04/30 07:11:28;;;;;;;2.65;2.45;;;18.50;56.80;;;;;;4974117;28;20189;-69
2023/04/30 07:13:54;;;;;;;2.08;1.98;;;18.50;56.80;;;;;;4991211;28;20736;-68
2023/04/30 07:16:20;;;;;;;1.90;1.80;;;18.50;56.80;;;;;;5007988;28;20196;-68
2023/04/30 07:18:47;;;;;;;2.00;1.90;;;18.50;56.80;;;;;;4954887;28;20193;-68
2023/04/30 07:21:14;;;;;;;1.92;1.83;;;18.50;56.80;;;;;;4948142;28;20228;-68
2023/04/30 07:23:40;;;;;;;2.03;1.92;;;18.50;56.80;;;;;;4939734;28;20228;-67
2023/04/30 07:26:06;;;;;;;2.00;1.90;;;18.50;56.80;;;;;;4963785;28;20189;-68
2023/04/30 07:28:31;;;;;;;2.30;2.20;;;18.50;56.80;;;;;;4991775;28;20648;-67
2023/04/30 07:30:57;;;;;;;2.15;2.05;;;18.50;56.80;;;;;;4975136;28;20191;-69
2023/04/30 07:33:23;;;;;;;2.30;2.10;;;18.50;56.80;;;;;;4957714;28;20231;-68
2023/04/30 07:35:50;;;;;;;2.30;2.20;;;18.50;56.70;;;;;;4955773;28;20236;-69
2023/04/30 07:38:17;;;;;;;2.50;2.30;;;18.60;56.70;;;;;;4972030;28;20193;-68
2023/04/30 07:40:43;;;;;;;2.50;2.30;;;18.60;56.70;;;;;;4955716;28;20216;-69
2023/04/30 07:43:10;;;;;;;2.25;2.05;;;18.60;56.60;;;;;;4972419;28;20213;-69
2023/04/30 07:45:36;;;;;;;2.42;2.25;;;18.60;56.60;;;;;;4976779;28;20221;-68
2023/04/30 07:48:02;;;;;;;2.78;2.50;;;18.60;56.50;;;;;;4959307;28;20196;-69
2023/04/30 07:50:32;;;;;;;2.47;2.30;;;18.70;56.50;;;;;;4965390;28;20196;-69
2023/04/30 07:52:59;;;;;;;2.60;2.40;;;18.60;56.40;;;;;;4964844;28;20193;-68
2023/04/30 07:55:25;;;;;;;2.75;2.55;;;18.70;56.50;;;;;;4976245;28;20213;-68
2023/04/30 07:57:51;;;;;;;2.70;2.50;;;18.70;56.50;;;;;;4991931;28;20186;-68
2023/04/30 08:00:16;;;;;;;3.05;2.80;;;18.70;56.40;;;;;;4959496;28;20208;-68
2023/04/30 08:02:47;;;;;;;2.80;2.60;;;18.70;56.40;;;;;;4966889;28;20210;-68
2023/04/30 08:05:12;;;;;;;2.70;2.50;;;18.70;56.40;;;;;;4966903;28;20214;-68
2023/04/30 08:07:38;;;;;;;2.75;2.50;;;18.70;56.30;;;;;;4962466;28;20211;-69
2023/04/30 08:10:05;;;;;;;2.78;2.58;;;18.70;56.40;;;;;;4973524;28;20188;-68
2023/04/30 08:12:31;;;;;;;2.25;2.05;;;18.70;56.40;;;;;;4946150;28;20185;-69
2023/04/30 08:15:03;;;;;;;2.70;2.50;;;18.80;56.40;;;;;;4970165;28;20215;-69
2023/04/30 08:17:30;;;;;;;3.05;2.85;;;18.70;56.20;;;;;;4962395;28;20646;-68
2023/04/30 08:19:56;;;;;;;2.65;2.45;;;18.80;56.30;;;;;;4957001;28;20224;-69
2023/04/30 08:22:23;;;;;;;3.20;2.60;;;18.80;56.20;;;;;;4966843;28;20312;-69
2023/04/30 08:24:49;;;;;;;2.95;2.75;;;18.80;56.20;;;;;;4988547;28;20208;-70
2023/04/30 08:27:15;;;;;;;2.47;2.28;;;18.80;56.20;;;;;;4978390;28;20281;-69
2023/04/30 08:29:41;;;;;;;2.90;2.70;;;18.80;56.20;;;;;;4958961;28;20562;-68
2023/04/30 08:32:08;;;;;;;2.83;2.60;;;18.80;56.10;;;;;;4958850;28;20193;-69
2023/04/30 08:34:34;;;;;;;2.78;2.58;;;18.80;56.00;;;;;;4966265;28;20217;-68
2023/04/30 08:37:00;;;;;;;2.67;2.47;;;18.80;56.10;;;;;;4974806;28;20213;-68
2023/04/30 08:39:26;;;;;;;2.80;2.60;;;18.80;56.10;;;;;;4948810;28;20193;-68
2023/04/30 08:41:55;;;;;;;2.75;2.55;;;18.80;56.00;;;;;;4974322;28;20218;-69
2023/04/30 08:44:22;;;;;;;3.17;2.50;;;18.80;56.00;;;;;;4958226;28;20237;-69
2023/04/30 08:46:54;;;;;;;2.63;2.42;;;18.80;56.00;;;;;;4962703;28;20707;-70
2023/04/30 08:49:24;;;;;;;2.80;2.60;;;18.90;56.00;;;;;;4969166;28;20566;-69
2023/04/30 08:51:51;;;;;;;2.97;2.78;;;18.80;56.00;;;;;;4943675;28;20208;-69
2023/04/30 08:54:18;;;;;;;2.80;2.60;;;18.80;56.00;;;;;;4989050;28;20216;-69
2023/04/30 08:56:47;;;;;;;2.92;2.72;;;18.80;55.80;;;;;;4958689;28;20288;-69
2023/04/30 08:59:13;;;;;;;2.60;2.40;;;18.80;56.00;;;;;;4982938;28;20563;-70
2023/04/30 09:01:40;;;;;;;3.13;2.90;;;18.90;56.00;;;;;;4990550;28;20182;-69
2023/04/30 09:04:06;;;;;;;2.90;2.70;;;18.80;55.90;;;;;;4941333;28;20197;-69
2023/04/30 09:06:32;;;;;;;2.95;2.60;;;18.90;55.80;;;;;;4966376;28;20185;-70
2023/04/30 09:09:15;;;;;;;2.78;2.58;;;18.90;55.80;;;;;;4958026;28;20716;-69
2023/04/30 09:11:41;;;;;;;2.40;2.20;;;18.90;55.90;;;;;;4961048;28;20220;-69
2023/04/30 09:14:07;;;;;;;2.90;2.60;;;18.90;56.00;;;;;;5002881;28;20202;-69
2023/04/30 09:16:48;;;;;;;2.70;2.50;;;18.90;55.90;;;;;;5000133;28;20196;-69
2023/04/30 09:19:27;;;;;;;2.50;2.30;;;18.90;55.90;;;;;;4953465;28;20280;-68
2023/04/30 09:21:53;;;;;;;2.75;2.55;;;18.90;55.90;;;;;;4977021;28;20692;-68
2023/04/30 09:24:19;;;;;;;3.25;2.97;;;18.90;56.00;;;;;;4949487;28;20198;-70
2023/04/30 09:26:49;;;;;;;2.60;2.40;;;18.90;56.00;;;;;;4957562;28;20197;-70
2023/04/30 09:29:15;;;;;;;3.28;2.75;;;18.90;55.80;;;;;;4957855;28;20274;-69
2023/04/30 09:31:46;;;;;;;3.40;3.20;;;18.90;55.80;;;;;;4957934;28;20182;-68
2023/04/30 09:34:12;;;;;;;2.85;2.65;;;18.90;55.80;;;;;;4980795;28;20208;-68
2023/04/30 09:36:54;;;;;;;2.55;2.35;;;18.90;55.90;;;;;;5007102;28;20203;-69
2023/04/30 09:39:20;;;;;;;3.80;2.63;;;18.90;55.80;;;;;;4954997;28;20186;-69
2023/04/30 09:41:46;;;;;;;2.60;2.40;;;18.90;55.70;;;;;;4973200;28;20328;-69
2023/04/30 09:44:29;;;;;;;2.80;2.60;;;18.90;55.80;;;;;;4957354;28;20281;-69
2023/04/30 09:46:57;;;;;;;2.90;2.70;;;18.90;55.80;;;;;;4974692;28;20254;-68
2023/04/30 09:49:22;;;;;;;2.60;2.40;;;18.90;55.70;;;;;;4965270;28;20652;-69
2023/04/30 09:51:57;;;;;;;3.08;2.75;;;18.90;55.80;;;;;;4957349;28;20193;-68
2023/04/30 09:54:29;;;;;;;2.60;2.40;;;18.90;55.80;;;;;;4956876;28;20221;-69
2023/04/30 09:57:00;;;;;;;2.47;2.28;;;18.90;55.80;;;;;;4970012;28;20220;-69
2023/04/30 09:59:36;;;;;;;2.70;2.50;;;18.90;55.80;;;;;;4975975;28;20275;-69
2023/04/30 10:02:07;;;;;;;2.88;2.58;;;18.90;55.80;;;;;;4989361;28;20221;-69
2023/04/30 10:04:41;;;;;;;2.80;2.60;;;18.90;55.80;;;;;;4980851;28;20201;-69
2023/04/30 10:07:18;;;;;;;2.88;2.67;;;18.90;55.80;;;;;;4956840;28;20193;-69
2023/04/30 10:09:58;;;;;;;2.50;2.30;;;18.90;56.00;;;;;;4957236;28;20185;-69
2023/04/30 10:12:41;;;;;;;2.67;2.05;;;18.90;56.00;;;;;;4972963;28;20222;-69
2023/04/30 10:15:22;;;;;;;2.70;2.50;;;18.90;56.00;;;;;;4972728;28;20217;-68
2023/04/30 10:18:05;;;;;;;2.53;2.33;;;18.90;55.80;;;;;;4957206;28;20227;-69
2023/04/30 10:20:36;;;;;;;2.75;2.55;;;18.90;55.70;;;;;;4973949;28;20229;-69
2023/04/30 10:23:02;;;;;;;2.50;2.30;;;18.90;55.70;;;;;;4970086;28;20219;-69
2023/04/30 10:25:29;;;;;;;2.58;2.38;;;18.90;55.70;;;;;;4959324;28;20178;-69
2023/04/30 10:27:55;;;;;;;2.90;2.60;;;18.90;55.70;;;;;;4940909;28;20194;-68
2023/04/30 10:30:22;;;;;;;4.35;2.47;;;18.90;55.60;;;;;;4958456;28;20185;-68
2023/04/30 10:33:01;;;;;;;3.00;2.70;;;18.90;55.60;;;;;;4956445;28;20189;-69
2023/04/30 10:35:39;;;;;;;2.80;2.60;;;18.90;55.60;;;;;;4956199;28;20205;-69
2023/04/30 10:38:23;;;;;;;2.83;2.45;;;18.90;55.60;;;;;;4988944;28;20328;-69
2023/04/30 10:40:53;;;;;;;2.60;2.40;;;18.90;55.50;;;;;;4964534;28;20687;-69
2023/04/30 10:43:20;;;;;;;4.38;2.42;;;18.90;55.50;;;;;;4956079;28;20209;-70
2023/04/30 10:45:47;;;;;;;3.25;2.28;;;18.90;55.50;;;;;;4956163;28;20193;-69
2023/04/30 10:48:15;;;;;;;2.50;2.33;;;18.90;55.40;;;;;;4980308;28;20185;-69
2023/04/30 10:50:43;;;;;;;2.80;2.60;;;18.90;55.40;;;;;;4959534;28;20194;-70
2023/04/30 10:53:16;;;;;;;2.40;2.22;;;18.90;55.30;;;;;;4967469;28;20217;-69
2023/04/30 10:55:56;;;;;;;2.28;2.17;;;18.90;55.40;;;;;;4957220;28;20205;-69
2023/04/30 10:58:34;;;;;;;2.50;2.30;;;18.90;55.20;;;;;;4981151;28;20241;-69
2023/04/30 11:01:00;;;;;;;2.40;2.20;;;18.90;55.30;;;;;;4949676;28;20287;-70
2023/04/30 11:03:29;;;;;;;2.60;2.40;;;18.90;55.10;;;;;;4939826;28;20271;-70
2023/04/30 11:05:55;;;;;;;3.25;2.22;;;18.90;55.10;;;;;;4964049;28;20649;-69
2023/04/30 11:08:36;;;;;;;2.50;2.30;;;18.90;55.10;;;;;;4974885;28;20189;-69
2023/04/30 11:11:03;;;;;;;2.33;2.22;;;18.90;55.10;;;;;;4965827;28;20188;-69
2023/04/30 11:13:40;;;;;;;2.40;2.20;;;18.90;55.20;;;;;;4963682;28;20206;-70
2023/04/30 11:16:06;;;;;;;2.28;2.17;;;18.90;55.30;;;;;;4986738;28;20190;-69
2023/04/30 11:18:32;;;;;;;2.22;2.10;;;18.90;55.20;;;;;;4941998;28;20198;-70
2023/04/30 11:20:58;;;;;;;2.58;2.38;;;18.90;55.30;;;;;;4940132;28;20189;-69
2023/04/30 11:23:25;;;;;;;3.38;2.40;;;18.90;55.20;;;;;;4939925;28;20231;-69
2023/04/30 11:25:56;;;;;;;4.40;2.40;;;18.90;55.10;;;;;;4963988;28;20186;-69
2023/04/30 11:28:27;;;;;;;2.42;2.22;;;18.90;55.10;;;;;;4971406;28;20708;-69
2023/04/30 11:30:58;;;;;;;2.80;2.30;;;18.90;55.10;;;;;;4963967;28;20193;-70
2023/04/30 11:33:27;;;;;;;2.40;2.20;;;18.90;55.10;;;;;;4955631;28;20303;-69
2023/04/30 11:35:55;;;;;;;2.58;2.38;;;18.90;55.10;;;;;;4947712;28;20229;-69
2023/04/30 11:38:42;;;;;;;2.60;2.40;;;19.00;55.20;;;;;;4970703;28;20197;-70
2023/04/30 11:41:11;;;;;;;1.88;1.77;;;18.90;55.10;;;;;;4947147;28;20202;-70
2023/04/30 11:43:37;;;;;;;2.70;2.20;;;18.90;55.10;;;;;;4964466;28;20284;-69
2023/04/30 11:46:11;;;;;;;2.75;2.00;;;19.00;55.20;;;;;;4965027;28;20196;-69
2023/04/30 11:48:41;;;;;;;2.83;2.05;;;18.90;55.10;;;;;;4957236;28;20184;-68
2023/04/30 11:51:26;;;;;;;2.08;1.92;;;18.90;55.10;;;;;;4981139;28;20184;-69
2023/04/30 11:53:52;;;;;;;2.25;2.05;;;19.00;55.20;;;;;;4962339;28;20227;-68
2023/04/30 11:56:24;;;;;;;2.40;2.20;;;19.00;55.20;;;;;;4962901;28;20192;-68
2023/04/30 11:58:53;;;;;;;2.10;1.98;;;19.00;55.20;;;;;;4966304;28;20193;-68
2023/04/30 12:01:20;;;;;;;2.30;2.10;;;19.00;55.20;;;;;;4948130;28;20207;-69
2023/04/30 12:03:49;;;;;;;2.30;2.10;;;19.00;55.20;;;;;;4974719;28;20220;-69
2023/04/30 12:06:23;;;;;;;2.00;1.90;;;18.90;55.00;;;;;;4952295;28;20189;-69
2023/04/30 12:08:53;;;;;;;2.63;2.10;;;19.00;55.20;;;;;;4983568;28;20284;-69
2023/04/30 12:11:23;;;;;;;2.75;2.13;;;18.90;55.10;;;;;;4983365;28;20196;-69
2023/04/30 12:14:10;;;;;;;4.00;2.30;;;19.00;55.20;;;;;;4963419;28;20304;-68
2023/04/30 12:16:40;;;;;;;2.50;2.30;;;19.00;55.20;;;;;;4972241;28;20200;-69
2023/04/30 12:19:06;;;;;;;4.65;1.90;;;19.00;55.20;;;;;;4982424;28;20206;-69
2023/04/30 12:21:33;;;;;;;2.10;1.90;;;19.00;55.20;;;;;;4971518;28;20188;-69
2023/04/30 12:23:59;;;;;;;2.35;2.10;;;19.00;55.20;;;;;;4968908;28;20245;-68
2023/04/30 12:26:38;;;;;;;2.00;1.90;;;19.00;55.20;;;;;;4970803;28;20217;-69
2023/04/30 12:29:14;;;;;;;2.22;2.03;;;19.00;55.20;;;;;;4981473;28;20240;-69
2023/04/30 12:31:41;;;;;;;1.90;1.73;;;19.00;55.20;;;;;;4976215;28;20191;-69
2023/04/30 12:34:10;;;;;;;2.95;2.40;;;19.00;55.20;;;;;;4972770;28;20216;-68
2023/04/30 12:36:41;;;;;;;2.35;1.88;;;19.00;55.20;;;;;;4965547;28;20197;-69
2023/04/30 12:39:09;;;;;;;2.35;2.17;;;19.00;55.20;;;;;;4962068;28;20181;-69
2023/04/30 12:41:41;;;;;;;2.00;1.90;;;19.00;55.20;;;;;;4991058;28;20189;-68
2023/04/30 12:44:23;;;;;;;2.08;1.98;;;19.00;55.20;;;;;;4966181;28;20304;-69
2023/04/30 12:46:55;;;;;;;2.35;2.15;;;19.00;55.20;;;;;;4966300;28;20193;-70
2023/04/30 12:49:29;;;;;;;2.05;1.95;;;19.00;55.20;;;;;;4965075;28;20193;-70
2023/04/30 12:52:10;;;;;;;2.55;2.10;;;19.00;55.20;;;;;;4961639;28;20180;-69
2023/04/30 12:54:38;;;;;;;3.17;2.17;;;19.00;55.20;;;;;;4958131;28;20217;-69